Newton, Mississippi
Current Conditions -  °F | °C
As of 6:58 AM on Tuesday 21 Oct 2014 (Local Time) from KMEI Reporting Station
Clear Clear  
Wind Chill: 46°   Ceiling: Unl
Heat Index: 46°   Visibility: 10mi
Dew Point: 44°   Wind: 0mph
Humidity: 93%   Direction: NA
Pressure: 30.07"   Gusts: NA
Location:  32.32°N, 89.16°W
Report Text: KMEI 211158Z 00000KT 10SM CLR 08/07 A3007 RMK AO2 SLP182 T00780067 10100 20078 51015
Loading
Personal Weather Stations






























Interactive Weather Map
Tropical Storm Tracking
New forecast layout! Learn more

10-Day Weather Forecast

Advertisements
Track Severe Weather on mobile